createdAt,value
2017-07-22T00:00:01.353Z,0
2017-07-22T00:01:43.728Z,0
2017-07-22T00:02:45.106Z,0
2017-07-22T00:03:46.484Z,0
2017-07-22T00:04:47.860Z,0
2017-07-22T00:05:49.244Z,0
2017-07-22T00:06:50.627Z,0
2017-07-22T00:07:52.004Z,0
2017-07-22T00:08:53.386Z,0
2017-07-22T00:09:54.765Z,0
2017-07-22T00:10:56.145Z,0
2017-07-22T00:11:57.523Z,0
2017-07-22T00:12:58.908Z,0
2017-07-22T00:14:00.285Z,0
2017-07-22T00:15:01.666Z,0
2017-07-22T00:16:03.054Z,0
2017-07-22T00:17:04.431Z,0
2017-07-22T00:18:05.809Z,0
2017-07-22T00:19:07.187Z,0
2017-07-22T00:20:08.572Z,0
2017-07-22T00:21:09.952Z,0
2017-07-22T00:22:11.335Z,0
2017-07-22T00:23:12.716Z,0
2017-07-22T00:24:14.098Z,0
2017-07-22T00:25:15.474Z,0
2017-07-22T00:26:16.854Z,0
2017-07-22T00:27:18.235Z,0
2017-07-22T00:28:19.618Z,0
2017-07-22T00:30:01.987Z,0
2017-07-22T00:31:03.369Z,0
2017-07-22T00:32:04.749Z,0
2017-07-22T00:33:06.130Z,0
2017-07-22T00:34:07.509Z,0
2017-07-22T00:35:08.900Z,0
2017-07-22T00:36:10.283Z,0
2017-07-22T00:37:11.668Z,0
2017-07-22T00:38:13.049Z,0
2017-07-22T00:39:14.426Z,0
2017-07-22T00:40:15.809Z,0
2017-07-22T00:41:58.183Z,0
2017-07-22T00:42:59.560Z,0
2017-07-22T00:44:00.939Z,0
2017-07-22T00:45:02.321Z,0
2017-07-22T00:46:03.737Z,0
2017-07-22T00:47:05.119Z,0
2017-07-22T00:48:46.498Z,0
2017-07-22T00:49:47.877Z,0
2017-07-22T00:50:49.281Z,0
2017-07-22T00:51:50.652Z,0
2017-07-22T00:52:52.031Z,0
2017-07-22T00:53:53.413Z,0
2017-07-22T00:54:54.795Z,0
2017-07-22T00:55:56.178Z,0
2017-07-22T00:56:57.557Z,0
2017-07-22T00:57:58.936Z,0
2017-07-22T00:59:00.315Z,0
2017-07-22T01:00:01.696Z,0
2017-07-22T01:01:03.077Z,0
2017-07-22T01:02:04.460Z,0
2017-07-22T01:03:46.842Z,0
2017-07-22T01:04:48.222Z,0
2017-07-22T01:05:49.602Z,0
2017-07-22T01:06:50.980Z,0
2017-07-22T01:07:52.365Z,0
2017-07-22T01:08:53.754Z,0
2017-07-22T01:09:55.135Z,0
2017-07-22T01:10:56.518Z,0
2017-07-22T01:11:57.894Z,0
2017-07-22T01:12:59.274Z,0
2017-07-22T01:14:41.646Z,0
2017-07-22T01:15:43.034Z,0
2017-07-22T01:16:44.406Z,0
2017-07-22T01:17:45.789Z,0
2017-07-22T01:18:47.166Z,0
2017-07-22T01:19:48.550Z,0
2017-07-22T01:21:30.929Z,0
2017-07-22T01:22:32.305Z,0
2017-07-22T01:23:33.688Z,0
2017-07-22T01:24:35.069Z,0
2017-07-22T01:25:36.449Z,0
2017-07-22T01:26:37.830Z,0
2017-07-22T01:27:39.215Z,0
2017-07-22T01:28:40.598Z,0
2017-07-22T01:29:41.977Z,0
2017-07-22T01:30:43.352Z,0
2017-07-22T01:31:44.732Z,0
2017-07-22T01:32:46.112Z,0
2017-07-22T01:33:47.498Z,0
2017-07-22T01:34:48.874Z,0
2017-07-22T01:35:50.262Z,0
2017-07-22T01:36:51.639Z,0
2017-07-22T01:37:53.015Z,0
2017-07-22T01:38:54.399Z,0
2017-07-22T01:39:55.780Z,0
2017-07-22T01:40:57.162Z,0
2017-07-22T01:41:58.544Z,0
2017-07-22T01:42:59.925Z,0
2017-07-22T01:44:01.305Z,0
2017-07-22T01:45:02.683Z,0
2017-07-22T01:46:04.064Z,0
2017-07-22T01:47:05.447Z,0
2017-07-22T01:48:06.827Z,0
2017-07-22T01:49:08.199Z,0
2017-07-22T01:50:09.590Z,0
2017-07-22T01:51:10.971Z,0
2017-07-22T01:52:12.351Z,0
2017-07-22T01:53:13.729Z,0
2017-07-22T01:54:15.112Z,0
2017-07-22T01:55:16.492Z,0
2017-07-22T01:56:17.875Z,0
2017-07-22T01:57:19.259Z,0
2017-07-22T01:58:20.646Z,0
2017-07-22T01:59:22.030Z,0
2017-07-22T02:00:23.405Z,0
2017-07-22T02:01:24.786Z,0
2017-07-22T02:02:26.167Z,0
2017-07-22T02:03:27.551Z,0
2017-07-22T02:04:28.938Z,0
2017-07-22T02:05:30.441Z,0
2017-07-22T02:06:31.803Z,0
2017-07-22T02:07:33.286Z,0
2017-07-22T02:09:15.645Z,0
2017-07-22T02:10:17.023Z,0
2017-07-22T02:11:18.460Z,0
2017-07-22T02:12:19.873Z,0
2017-07-22T02:13:21.282Z,0
2017-07-22T02:14:23.713Z,0
2017-07-22T02:15:26.025Z,0
2017-07-22T02:16:28.185Z,0
2017-07-22T02:17:29.668Z,0
2017-07-22T02:18:31.308Z,0
2017-07-22T02:19:32.898Z,0
2017-07-22T02:20:34.927Z,0
2017-07-22T02:21:36.916Z,0
2017-07-22T02:22:38.472Z,0
2017-07-22T02:23:41.216Z,0
2017-07-22T02:24:43.067Z,0
2017-07-22T02:25:44.810Z,0
2017-07-22T02:26:46.385Z,0
2017-07-22T02:27:48.147Z,0
2017-07-22T02:28:49.816Z,0
2017-07-22T02:29:51.501Z,0
2017-07-22T02:30:53.218Z,0
2017-07-22T02:31:54.922Z,0
2017-07-22T02:32:56.642Z,0
2017-07-22T02:33:58.384Z,0
2017-07-22T02:35:00.057Z,0
2017-07-22T02:36:01.846Z,0
2017-07-22T02:37:44.234Z,0
2017-07-22T02:38:45.702Z,0
2017-07-22T02:39:47.085Z,0
2017-07-22T02:40:48.485Z,0
2017-07-22T02:41:49.892Z,0
2017-07-22T02:42:51.328Z,0
2017-07-22T02:43:52.820Z,0
2017-07-22T02:44:54.249Z,0
2017-07-22T02:45:55.673Z,0
2017-07-22T02:46:57.436Z,0
2017-07-22T02:47:59.147Z,0
2017-07-22T02:49:41.505Z,0
2017-07-22T02:50:42.881Z,0
2017-07-22T02:51:44.264Z,0
2017-07-22T02:52:45.654Z,0
2017-07-22T02:53:47.252Z,0
2017-07-22T02:54:48.662Z,0
2017-07-22T02:55:50.041Z,0
2017-07-22T02:56:51.422Z,0
2017-07-22T02:57:52.829Z,0
2017-07-22T02:58:54.243Z,0
2017-07-22T02:59:55.655Z,0
2017-07-22T03:00:57.063Z,0
2017-07-22T03:01:58.459Z,0
2017-07-22T03:02:59.845Z,0
2017-07-22T03:04:42.260Z,0
2017-07-22T03:05:43.641Z,0
2017-07-22T03:06:45.019Z,0
2017-07-22T03:07:46.400Z,0
2017-07-22T03:08:47.778Z,0
2017-07-22T03:09:49.160Z,0
2017-07-22T03:10:50.536Z,0
2017-07-22T03:11:51.920Z,0
2017-07-22T03:12:53.331Z,0
2017-07-22T03:13:54.706Z,0
2017-07-22T03:14:56.118Z,4
2017-07-22T03:15:57.562Z,4
2017-07-22T03:16:59.602Z,4
2017-07-22T03:18:01.088Z,4
2017-07-22T03:19:02.623Z,4
2017-07-22T03:20:04.065Z,4
2017-07-22T03:21:05.755Z,4
2017-07-22T03:22:07.446Z,8
2017-07-22T03:23:09.423Z,8
2017-07-22T03:24:10.843Z,4
2017-07-22T03:25:12.367Z,8
2017-07-22T03:26:13.740Z,8
2017-07-22T03:27:15.127Z,8
2017-07-22T03:28:16.524Z,8
2017-07-22T03:29:17.984Z,12
2017-07-22T03:30:19.453Z,12
2017-07-22T03:31:20.925Z,12
2017-07-22T03:32:22.344Z,16
2017-07-22T03:33:23.769Z,16
2017-07-22T03:34:25.172Z,16
2017-07-22T03:35:26.626Z,20
2017-07-22T03:37:09.024Z,24
2017-07-22T03:38:10.407Z,24
2017-07-22T03:39:11.783Z,28
2017-07-22T03:40:13.179Z,28
2017-07-22T03:41:14.920Z,28
2017-07-22T03:42:16.321Z,28
2017-07-22T03:43:17.742Z,32
2017-07-22T03:44:19.157Z,36
2017-07-22T03:45:20.534Z,40
2017-07-22T03:46:21.940Z,40
2017-07-22T03:48:04.338Z,48
2017-07-22T03:49:05.716Z,52
2017-07-22T03:50:07.095Z,56
2017-07-22T03:51:08.480Z,56
2017-07-22T03:52:09.867Z,60
2017-07-22T03:53:11.244Z,64
2017-07-22T03:54:12.634Z,68
2017-07-22T03:55:14.024Z,76
2017-07-22T03:56:15.397Z,80
2017-07-22T03:57:16.774Z,88
2017-07-22T03:58:18.184Z,96
2017-07-22T03:59:19.564Z,104
2017-07-22T04:00:20.952Z,108
2017-07-22T04:01:22.478Z,120
2017-07-22T04:02:23.862Z,132
2017-07-22T04:03:25.323Z,140
2017-07-22T04:04:26.729Z,152
2017-07-22T04:05:28.163Z,164
2017-07-22T04:06:29.632Z,176
2017-07-22T04:07:31.074Z,188
2017-07-22T04:08:32.502Z,204
2017-07-22T04:09:33.898Z,220
2017-07-22T04:10:35.288Z,236
2017-07-22T04:11:36.678Z,248
2017-07-22T04:12:38.074Z,260
2017-07-22T04:13:39.467Z,272
2017-07-22T04:14:40.868Z,284
2017-07-22T04:15:42.262Z,280
2017-07-22T04:16:43.694Z,280
2017-07-22T04:17:45.218Z,272
2017-07-22T04:18:46.600Z,264
2017-07-22T04:19:48.008Z,264
2017-07-22T04:20:49.464Z,264
2017-07-22T04:21:50.887Z,276
2017-07-22T04:22:52.332Z,292
2017-07-22T04:24:34.680Z,356
2017-07-22T04:25:36.058Z,400
2017-07-22T04:26:37.441Z,460
2017-07-22T04:27:38.820Z,524
2017-07-22T04:28:41.308Z,592
2017-07-22T04:29:42.972Z,700
2017-07-22T04:30:44.933Z,808
2017-07-22T04:31:46.941Z,900
2017-07-22T04:32:48.657Z,972
2017-07-22T04:33:50.069Z,1032
2017-07-22T04:34:51.477Z,1084
2017-07-22T04:35:54.387Z,1112
2017-07-22T04:36:56.390Z,1128
2017-07-22T04:37:59.581Z,1104
2017-07-22T04:39:01.552Z,1076
2017-07-22T04:40:03.034Z,1056
2017-07-22T04:41:04.464Z,1044
2017-07-22T04:42:05.911Z,1040
2017-07-22T04:43:07.313Z,1036
2017-07-22T04:44:08.722Z,1052
2017-07-22T04:45:10.122Z,1068
2017-07-22T04:46:52.688Z,1108
2017-07-22T04:47:54.657Z,1116
2017-07-22T04:48:56.263Z,1116
2017-07-22T04:49:57.801Z,1104
2017-07-22T04:50:59.962Z,1080
2017-07-22T04:52:01.565Z,1060
2017-07-22T04:53:03.115Z,1012
2017-07-22T04:54:05.090Z,980
2017-07-22T04:55:06.697Z,960
2017-07-22T04:56:49.068Z,940
2017-07-22T04:57:50.451Z,896
2017-07-22T04:58:52.855Z,844
2017-07-22T04:59:55.036Z,796
2017-07-22T05:00:56.592Z,756
2017-07-22T05:01:58.525Z,752
2017-07-22T05:03:01.591Z,760
2017-07-22T05:04:03.756Z,788
2017-07-22T05:05:05.164Z,824
2017-07-22T05:06:06.539Z,884
2017-07-22T05:07:09.047Z,960
2017-07-22T05:08:10.435Z,1052
2017-07-22T05:09:11.826Z,1160
2017-07-22T05:10:13.267Z,1276
2017-07-22T05:11:14.664Z,1416
2017-07-22T05:12:18.652Z,1592
2017-07-22T05:13:19.991Z,1736
2017-07-22T05:14:22.204Z,1796
2017-07-22T05:15:25.001Z,1852
2017-07-22T05:16:26.457Z,1948
2017-07-22T05:18:08.901Z,2096
2017-07-22T05:19:10.284Z,2144
2017-07-22T05:20:11.664Z,2188
2017-07-22T05:21:13.050Z,2252
2017-07-22T05:22:14.442Z,2380
2017-07-22T05:23:15.839Z,2572
2017-07-22T05:24:17.231Z,2720
2017-07-22T05:25:18.622Z,2904
2017-07-22T05:26:20.463Z,3144
2017-07-22T05:27:21.817Z,3464
2017-07-22T05:28:25.168Z,3692
2017-07-22T05:29:26.720Z,3844
2017-07-22T05:30:28.405Z,3972
2017-07-22T05:31:29.823Z,4016
2017-07-22T05:32:32.480Z,4100
2017-07-22T05:33:34.628Z,4144
2017-07-22T05:34:36.329Z,3932
2017-07-22T05:35:38.462Z,3704
2017-07-22T05:37:19.830Z,3352
2017-07-22T05:38:21.204Z,3148
2017-07-22T05:39:22.594Z,2984
2017-07-22T05:40:23.979Z,2832
2017-07-22T05:41:25.765Z,2720
2017-07-22T05:42:27.586Z,2664
2017-07-22T05:43:30.400Z,2592
2017-07-22T05:44:32.011Z,2556
2017-07-22T05:45:34.969Z,2580
2017-07-22T05:46:36.271Z,2596
2017-07-22T05:47:38.997Z,2728
2017-07-22T05:48:40.414Z,2804
2017-07-22T05:49:41.891Z,2852
2017-07-22T05:50:43.385Z,2892
2017-07-22T05:51:46.101Z,2960
2017-07-22T05:52:47.399Z,3060
2017-07-22T05:53:48.853Z,3132
2017-07-22T05:54:50.920Z,3184
2017-07-22T05:55:52.495Z,3252
2017-07-22T05:56:53.879Z,3360
2017-07-22T05:57:55.954Z,3528
2017-07-22T05:58:57.680Z,3716
2017-07-22T06:00:00.136Z,3876
2017-07-22T06:01:01.574Z,3920
2017-07-22T06:02:03.071Z,4012
2017-07-22T06:03:04.468Z,4116
2017-07-22T06:04:05.960Z,4268
2017-07-22T06:05:08.062Z,4424
2017-07-22T06:06:10.234Z,4608
2017-07-22T06:07:52.590Z,4908
2017-07-22T06:08:53.973Z,6204
2017-07-22T06:09:55.358Z,7104
2017-07-22T06:10:56.742Z,9036
2017-07-22T06:11:58.260Z,6768
2017-07-22T06:13:00.172Z,11128
2017-07-22T06:14:01.743Z,12132
2017-07-22T06:15:03.161Z,12748
2017-07-22T06:16:04.555Z,10308
2017-07-22T06:17:06.938Z,13540
2017-07-22T06:18:08.412Z,13808
2017-07-22T06:19:09.856Z,13732
2017-07-22T06:20:52.237Z,14440
2017-07-22T06:21:54.429Z,14812
2017-07-22T06:22:55.814Z,15456
2017-07-22T06:23:57.208Z,15208
2017-07-22T06:24:58.594Z,14524
2017-07-22T06:25:59.981Z,14228
2017-07-22T06:27:01.373Z,13848
2017-07-22T06:28:03.856Z,13880
2017-07-22T06:29:05.543Z,13848
2017-07-22T06:30:06.967Z,14128
2017-07-22T06:31:09.076Z,13892
2017-07-22T06:32:10.606Z,13956
2017-07-22T06:33:12.143Z,14072
2017-07-22T06:34:13.572Z,14180
2017-07-22T06:35:15.064Z,14444
2017-07-22T06:36:16.505Z,14792
2017-07-22T06:37:17.937Z,15064
2017-07-22T06:38:20.645Z,15112
2017-07-22T06:39:23.410Z,15292
2017-07-22T06:40:24.810Z,15712
2017-07-22T06:41:26.807Z,16448
2017-07-22T06:42:28.260Z,17376
2017-07-22T06:43:29.651Z,18464
2017-07-22T06:44:31.059Z,20192
2017-07-22T06:45:32.467Z,22976
2017-07-22T06:46:34.508Z,26432
2017-07-22T06:47:35.920Z,30752
2017-07-22T06:48:39.318Z,33952
2017-07-22T06:49:40.733Z,34560
2017-07-22T06:50:42.124Z,33664
2017-07-22T06:51:43.532Z,38112
2017-07-22T06:52:45.027Z,44512
2017-07-22T06:54:27.426Z,57280
2017-07-22T06:55:28.806Z,73472
2017-07-22T06:56:30.209Z,84576
2017-07-22T06:57:31.595Z,76032
2017-07-22T06:58:33.009Z,64928
2017-07-22T06:59:34.402Z,56128
2017-07-22T07:00:35.802Z,51456
2017-07-22T07:01:37.215Z,46112
2017-07-22T07:02:38.621Z,39904
2017-07-22T07:03:40.016Z,38016
2017-07-22T07:04:41.464Z,38464
2017-07-22T07:05:43.021Z,35200
2017-07-22T07:06:44.427Z,32800
2017-07-22T07:07:45.821Z,35104
2017-07-22T07:08:47.222Z,34528
2017-07-22T07:09:48.616Z,31968
2017-07-22T07:10:50.039Z,30176
2017-07-22T07:11:51.433Z,29664
2017-07-22T07:12:52.839Z,29632
2017-07-22T07:13:54.233Z,29696
2017-07-22T07:15:36.633Z,28544
2017-07-22T07:16:38.045Z,28736
2017-07-22T07:17:39.424Z,29216
2017-07-22T07:18:40.821Z,29152
2017-07-22T07:19:42.215Z,28896
2017-07-22T07:20:43.614Z,28992
2017-07-22T07:21:45.011Z,28928
2017-07-22T07:22:46.412Z,27744
2017-07-22T07:23:47.817Z,27520
2017-07-22T07:24:49.211Z,28416
2017-07-22T07:25:50.612Z,28672
2017-07-22T07:26:52.011Z,28768
2017-07-22T07:27:53.449Z,30208
2017-07-22T07:28:54.852Z,31712
2017-07-22T07:29:56.310Z,34016
2017-07-22T07:30:57.712Z,28096
2017-07-22T07:31:59.109Z,32832
2017-07-22T07:33:00.579Z,32448
2017-07-22T07:34:02.038Z,31040
2017-07-22T07:35:03.487Z,32192
2017-07-22T07:36:04.890Z,30976
2017-07-22T07:37:06.296Z,31712
2017-07-22T07:38:08.012Z,34752
2017-07-22T07:39:09.501Z,35104
2017-07-22T07:40:10.982Z,33280
2017-07-22T07:41:12.386Z,33952
2017-07-22T07:42:13.808Z,17280
2017-07-22T07:43:15.205Z,14216
2017-07-22T07:44:16.638Z,15904
2017-07-22T07:45:18.145Z,23136
2017-07-22T07:46:19.561Z,22016
2017-07-22T07:48:01.961Z,28256
2017-07-22T07:49:03.358Z,21344
2017-07-22T07:50:04.753Z,20000
2017-07-22T07:51:06.158Z,18272
2017-07-22T07:52:07.587Z,23424
2017-07-22T07:53:08.964Z,14668
2017-07-22T07:54:10.360Z,15976
2017-07-22T07:55:11.762Z,19712
2017-07-22T07:56:13.158Z,24416
2017-07-22T07:57:55.548Z,23456
2017-07-22T07:58:56.944Z,23232
2017-07-22T07:59:58.340Z,23456
2017-07-22T08:00:59.736Z,23840
2017-07-22T08:02:01.139Z,24128
2017-07-22T08:03:02.534Z,24672
2017-07-22T08:04:03.929Z,26880
2017-07-22T08:05:05.325Z,44832
2017-07-22T08:06:06.721Z,64768
2017-07-22T08:07:08.122Z,65632
2017-07-22T08:08:09.517Z,65984
2017-07-22T08:09:10.915Z,66048
2017-07-22T08:10:12.313Z,66688
2017-07-22T08:11:13.710Z,64256
2017-07-22T08:12:15.112Z,63648
2017-07-22T08:13:57.501Z,56256
2017-07-22T08:14:58.897Z,64896
2017-07-22T08:16:00.294Z,66880
2017-07-22T08:17:01.692Z,67680
2017-07-22T08:18:03.105Z,62336
2017-07-22T08:19:04.512Z,37280
2017-07-22T08:20:05.911Z,33184
2017-07-22T08:21:07.310Z,27904
2017-07-22T08:22:08.711Z,26176
2017-07-22T08:23:10.110Z,24672
2017-07-22T08:24:11.510Z,22560
2017-07-22T08:25:12.921Z,22720
2017-07-22T08:26:14.319Z,22336
2017-07-22T08:27:15.721Z,21376
2017-07-22T08:28:17.122Z,20352
2017-07-22T08:29:18.534Z,19808
2017-07-22T08:31:00.934Z,19488
2017-07-22T08:32:02.333Z,19296
2017-07-22T08:33:03.728Z,19392
2017-07-22T08:34:05.131Z,19040
2017-07-22T08:35:06.949Z,18560
2017-07-22T08:36:08.416Z,18080
2017-07-22T08:37:09.817Z,18144
2017-07-22T08:38:11.222Z,17888
2017-07-22T08:39:12.619Z,17728
2017-07-22T08:40:14.021Z,18016
2017-07-22T08:41:15.417Z,18656
2017-07-22T08:42:16.824Z,19424
2017-07-22T08:43:18.263Z,20384
2017-07-22T08:44:19.670Z,21216
2017-07-22T08:45:21.232Z,21792
2017-07-22T08:46:22.648Z,19168
2017-07-22T08:47:24.392Z,18784
2017-07-22T08:48:25.846Z,22560
2017-07-22T08:49:27.271Z,17312
2017-07-22T08:50:28.716Z,21312
2017-07-22T08:51:30.125Z,21024
2017-07-22T08:52:31.532Z,20768
2017-07-22T08:53:32.992Z,20352
2017-07-22T08:54:34.392Z,19264
2017-07-22T08:55:35.787Z,19360
2017-07-22T08:56:37.193Z,19328
2017-07-22T08:57:38.598Z,19680
2017-07-22T08:58:40.048Z,19584
2017-07-22T08:59:41.464Z,19680
2017-07-22T09:00:42.866Z,18880
2017-07-22T09:01:44.264Z,19104
2017-07-22T09:02:45.671Z,18656
2017-07-22T09:03:47.081Z,18624
2017-07-22T09:04:48.477Z,19072
2017-07-22T09:05:49.880Z,19744
2017-07-22T09:06:51.286Z,20608
2017-07-22T09:07:52.694Z,21920
2017-07-22T09:09:35.100Z,25888
2017-07-22T09:10:36.499Z,27680
2017-07-22T09:11:37.917Z,27904
2017-07-22T09:12:39.308Z,30880
2017-07-22T09:13:40.710Z,28096
2017-07-22T09:14:42.116Z,25536
2017-07-22T09:15:43.520Z,73664
2017-07-22T09:16:44.920Z,57824
2017-07-22T09:17:46.432Z,24032
2017-07-22T09:19:28.822Z,33440
2017-07-22T09:20:30.225Z,26400
2017-07-22T09:21:31.626Z,26880
2017-07-22T09:22:33.032Z,35840
2017-07-22T09:23:34.435Z,31616
2017-07-22T09:24:35.839Z,71520
2017-07-22T09:25:37.239Z,30272
2017-07-22T09:26:38.642Z,33728
2017-07-22T09:27:40.045Z,96544
2017-07-22T09:28:41.440Z,29728
2017-07-22T09:29:42.895Z,46368
2017-07-22T09:30:44.437Z,92992
2017-07-22T09:31:45.869Z,63328
2017-07-22T09:32:47.257Z,92800
2017-07-22T09:34:29.662Z,88704
2017-07-22T09:35:31.062Z,89536
2017-07-22T09:36:32.461Z,85760
2017-07-22T09:37:33.896Z,84640
2017-07-22T09:38:35.299Z,84736
2017-07-22T09:40:17.702Z,86176
2017-07-22T09:41:19.102Z,85472
2017-07-22T09:42:20.508Z,87904
2017-07-22T09:43:21.915Z,89216
2017-07-22T09:44:23.314Z,90144
2017-07-22T09:45:24.717Z,86880
2017-07-22T09:46:26.126Z,87392
2017-07-22T09:47:27.533Z,87744
2017-07-22T09:48:28.972Z,88896
2017-07-22T09:49:30.372Z,88864
2017-07-22T09:50:31.774Z,87136
2017-07-22T09:51:33.198Z,87840
2017-07-22T09:52:34.599Z,87520
2017-07-22T09:53:36.010Z,88128
2017-07-22T09:55:18.417Z,90496
2017-07-22T09:56:19.816Z,88864
2017-07-22T09:57:21.233Z,87072
2017-07-22T09:58:22.634Z,88608
2017-07-22T09:59:24.039Z,89088
2017-07-22T10:00:25.443Z,89888
2017-07-22T10:01:26.844Z,91584
2017-07-22T10:02:28.264Z,90272
2017-07-22T10:03:29.667Z,88192
2017-07-22T10:04:31.069Z,89760
2017-07-22T10:05:32.476Z,90048
2017-07-22T10:06:33.892Z,88608
2017-07-22T10:07:35.294Z,87008
2017-07-22T10:08:36.703Z,88192
2017-07-22T10:09:38.124Z,86816
2017-07-22T10:10:39.525Z,87520
2017-07-22T10:11:40.930Z,88736
2017-07-22T10:12:42.419Z,88864
2017-07-22T10:13:43.878Z,88768
2017-07-22T10:14:45.349Z,89120
2017-07-22T10:15:46.808Z,89920
2017-07-22T10:16:48.243Z,89824
2017-07-22T10:17:49.656Z,89472
2017-07-22T10:18:51.050Z,90880
2017-07-22T10:19:52.459Z,91552
2017-07-22T10:20:53.889Z,90944
2017-07-22T10:21:55.305Z,92320
2017-07-22T10:22:56.712Z,93408
2017-07-22T10:23:58.125Z,92288
2017-07-22T10:24:59.529Z,92448
2017-07-22T10:26:00.936Z,93984
2017-07-22T10:27:02.343Z,95264
2017-07-22T10:28:03.755Z,95200
2017-07-22T10:29:05.165Z,94656
2017-07-22T10:30:06.569Z,95136
2017-07-22T10:31:07.983Z,95072
2017-07-22T10:32:09.389Z,95456
2017-07-22T10:33:10.795Z,95232
2017-07-22T10:34:12.200Z,94560
2017-07-22T10:35:13.630Z,97312
2017-07-22T10:36:15.035Z,97888
2017-07-22T10:37:16.445Z,97120
2017-07-22T10:38:17.858Z,95296
2017-07-22T10:39:19.266Z,96064
2017-07-22T10:40:20.667Z,98304
2017-07-22T10:41:22.079Z,96288
2017-07-22T10:42:23.517Z,100288
2017-07-22T10:43:24.940Z,100224
2017-07-22T10:44:26.390Z,99552
2017-07-22T10:45:27.845Z,106496
2017-07-22T10:46:29.273Z,106400
2017-07-22T10:47:30.710Z,89280
2017-07-22T10:48:32.127Z,101952
2017-07-22T10:49:33.584Z,96288
2017-07-22T10:50:34.997Z,104864
2017-07-22T10:51:36.419Z,100992
2017-07-22T10:52:37.833Z,98688
2017-07-22T10:53:39.257Z,99104
2017-07-22T10:54:40.664Z,26112
2017-07-22T10:55:42.070Z,17664
2017-07-22T10:56:43.510Z,15956
2017-07-22T10:57:44.918Z,15700
2017-07-22T10:58:46.337Z,16116
2017-07-22T10:59:47.750Z,45696
2017-07-22T11:00:49.157Z,102112
2017-07-22T11:01:50.654Z,105536
2017-07-22T11:02:52.057Z,104576
2017-07-22T11:03:53.497Z,104384
2017-07-22T11:05:35.919Z,104352
2017-07-22T11:06:37.323Z,104224
2017-07-22T11:07:38.745Z,104800
2017-07-22T11:08:40.154Z,73600
2017-07-22T11:09:41.563Z,45824
2017-07-22T11:10:42.965Z,30272
2017-07-22T11:11:44.382Z,102816
2017-07-22T11:12:45.793Z,105600
2017-07-22T11:13:47.199Z,47072
2017-07-22T11:14:48.628Z,105120
2017-07-22T11:15:50.019Z,107552
2017-07-22T11:16:51.426Z,105600
2017-07-22T11:17:52.835Z,100544
2017-07-22T11:18:54.242Z,99552
2017-07-22T11:19:55.662Z,100608
2017-07-22T11:20:57.079Z,93696
2017-07-22T11:21:58.532Z,100608
2017-07-22T11:23:40.951Z,101792
2017-07-22T11:24:42.354Z,99904
2017-07-22T11:25:43.762Z,99552
2017-07-22T11:26:45.171Z,101184
2017-07-22T11:27:46.579Z,101216
2017-07-22T11:28:47.986Z,100960
2017-07-22T11:29:49.396Z,102400
2017-07-22T11:30:50.810Z,103584
2017-07-22T11:31:52.214Z,19872
2017-07-22T11:32:53.627Z,20672
2017-07-22T11:33:55.039Z,99456
2017-07-22T11:34:56.449Z,103968
2017-07-22T11:35:57.857Z,105632
2017-07-22T11:36:59.272Z,106368
2017-07-22T11:38:00.765Z,84832
2017-07-22T11:39:02.214Z,100928
2017-07-22T11:40:03.657Z,101504
2017-07-22T11:41:45.094Z,30688
2017-07-22T11:42:46.496Z,71296
2017-07-22T11:44:08.525Z,82720
2017-07-22T11:45:09.932Z,94176
2017-07-22T11:46:32.959Z,73152
2017-07-22T11:47:34.374Z,101728
2017-07-22T11:48:35.780Z,100768
2017-07-22T11:49:37.187Z,100384
2017-07-22T11:50:38.606Z,96544
2017-07-22T11:51:40.008Z,16444
2017-07-22T11:52:41.418Z,15344
2017-07-22T11:53:42.826Z,18720
2017-07-22T11:54:44.229Z,21824
2017-07-22T11:55:45.640Z,41600
2017-07-22T11:56:47.051Z,88160
2017-07-22T11:57:48.454Z,98688
2017-07-22T11:58:49.865Z,94176
2017-07-22T11:59:51.270Z,91616
2017-07-22T12:00:52.676Z,90624
2017-07-22T12:01:54.085Z,95648
2017-07-22T12:02:55.489Z,93280
2017-07-22T12:03:56.895Z,94752
2017-07-22T12:04:58.299Z,96000
2017-07-22T12:05:59.708Z,99008
2017-07-22T12:07:01.123Z,100800
2017-07-22T12:08:02.526Z,99328
2017-07-22T12:09:03.934Z,95776
2017-07-22T12:10:05.342Z,96416
2017-07-22T12:11:06.751Z,64512
2017-07-22T12:12:08.148Z,21728
2017-07-22T12:13:09.555Z,21440
2017-07-22T12:14:10.968Z,41216
2017-07-22T12:15:12.389Z,83776
2017-07-22T12:16:13.858Z,95104
2017-07-22T12:17:15.333Z,99072
2017-07-22T12:18:16.748Z,100768
2017-07-22T12:19:18.150Z,68032
2017-07-22T12:20:19.642Z,91520
2017-07-22T12:21:21.050Z,92768
2017-07-22T12:22:22.458Z,95008
2017-07-22T12:23:23.864Z,98240
2017-07-22T12:24:25.342Z,100256
2017-07-22T12:25:26.771Z,103840
2017-07-22T12:26:28.174Z,102784
2017-07-22T12:27:29.600Z,22144
2017-07-22T12:28:31.098Z,97184
2017-07-22T12:29:32.533Z,95392
2017-07-22T12:30:34.041Z,61536
2017-07-22T12:31:35.483Z,22752
2017-07-22T12:32:36.890Z,27424
2017-07-22T12:34:19.299Z,27552
2017-07-22T12:35:20.706Z,22112
2017-07-22T12:36:22.119Z,21984
2017-07-22T12:37:23.534Z,39008
2017-07-22T12:38:24.926Z,103104
2017-07-22T12:39:26.362Z,101056
2017-07-22T12:40:27.761Z,99008
2017-07-22T12:41:29.169Z,97504
2017-07-22T12:42:30.569Z,14688
2017-07-22T12:43:31.971Z,19968
2017-07-22T12:44:33.378Z,24480
2017-07-22T12:45:34.786Z,28032
2017-07-22T12:46:36.196Z,30144
2017-07-22T12:47:37.600Z,41632
2017-07-22T12:48:39.031Z,26624
2017-07-22T12:49:40.426Z,23712
2017-07-22T12:50:41.828Z,27616
2017-07-22T12:51:43.231Z,23584
2017-07-22T12:52:44.635Z,23744
2017-07-22T12:53:46.051Z,23520
2017-07-22T12:54:47.455Z,23520
2017-07-22T12:55:48.860Z,23008
2017-07-22T12:57:30.261Z,20608
2017-07-22T12:58:31.660Z,22080
2017-07-22T12:59:33.069Z,24288
2017-07-22T13:00:34.482Z,25248
2017-07-22T13:01:35.909Z,25216
2017-07-22T13:02:37.283Z,23008
2017-07-22T13:03:38.700Z,24704
2017-07-22T13:04:40.100Z,117568
2017-07-22T13:05:41.504Z,115872
2017-07-22T13:06:42.906Z,122144
2017-07-22T13:07:44.333Z,116448
2017-07-22T13:08:45.727Z,125408
2017-07-22T13:09:47.129Z,48896
2017-07-22T13:10:48.537Z,108832
2017-07-22T13:11:49.941Z,60768
2017-07-22T13:12:51.345Z,117664
2017-07-22T13:13:52.748Z,112800
2017-07-22T13:14:54.154Z,46912
2017-07-22T13:15:55.559Z,32960
2017-07-22T13:16:56.965Z,111552
2017-07-22T13:17:58.366Z,19392
2017-07-22T13:18:59.774Z,16224
2017-07-22T13:20:01.177Z,14900
2017-07-22T13:21:02.579Z,14520
2017-07-22T13:22:04.003Z,14108
2017-07-22T13:23:05.401Z,13520
2017-07-22T13:24:06.809Z,11836
2017-07-22T13:25:08.215Z,10280
2017-07-22T13:26:09.618Z,8868
2017-07-22T13:27:11.016Z,7688
2017-07-22T13:28:12.415Z,6808
2017-07-22T13:29:13.825Z,6380
2017-07-22T13:30:15.217Z,6336
2017-07-22T13:31:16.615Z,6864
2017-07-22T13:32:18.023Z,7756
2017-07-22T13:33:19.415Z,9100
2017-07-22T13:34:20.813Z,10264
2017-07-22T13:35:22.213Z,10520
2017-07-22T13:37:04.622Z,10752
2017-07-22T13:38:06.019Z,11112
2017-07-22T13:39:07.426Z,11952
2017-07-22T13:40:08.816Z,13692
2017-07-22T13:41:10.215Z,16128
2017-07-22T13:42:11.614Z,18464
2017-07-22T13:43:13.013Z,24192
2017-07-22T13:44:14.409Z,57152
2017-07-22T13:45:56.799Z,112992
2017-07-22T13:46:58.194Z,62048
2017-07-22T13:47:59.620Z,115104
2017-07-22T13:49:01.016Z,114048
2017-07-22T13:50:02.421Z,106144
2017-07-22T13:51:03.811Z,82464
2017-07-22T13:52:05.219Z,61216
2017-07-22T13:53:06.621Z,54336
2017-07-22T13:54:08.021Z,54016
2017-07-22T13:55:09.418Z,51040
2017-07-22T13:56:10.823Z,52896
2017-07-22T13:57:12.222Z,19456
2017-07-22T13:58:13.628Z,16704
2017-07-22T13:59:15.026Z,14076
2017-07-22T14:00:16.430Z,10436
2017-07-22T14:01:17.829Z,7784
2017-07-22T14:02:19.249Z,6704
2017-07-22T14:03:20.652Z,6016
2017-07-22T14:04:22.047Z,5544
2017-07-22T14:05:23.451Z,5376
2017-07-22T14:06:24.861Z,5376
2017-07-22T14:07:26.261Z,5668
2017-07-22T14:08:27.665Z,5676
2017-07-22T14:10:10.055Z,5024
2017-07-22T14:11:11.448Z,4672
2017-07-22T14:12:12.846Z,4492